Latest Coastal Weather Observations for Gladstone

IDQ60701

Issued at 9:13 am EST Sunday 19 May 2024 (issued every 10 minutes, with the page automatically refreshed every 10 minutes)

About coastal observations | Map of coastal stations | Coastal observations for QLD | Marine services | Other Formats
Station Details ID: 039123 Name: GLADSTONE RADAR Lat: -23.86 Lon: 151.26 Height: 74.5 m
Data from the previous 72 hours. | See also: Recent months at Gladstone
Date/Time
EST
Wind Sea
Height
m
Swell Vis
km
Cloud Weather Temp
°C
Press
MSL
hPa
Rain since
9am
mm
Dir  Spd
kts
Gust
kts
Height
m
Period
s
Dir
19/09:00am SSW 6 12 - - - - - - - 15.6 1017.8 0.0
19/08:30am S 4 11 - - - - - - - 14.6 1017.5 0.0
19/08:00am SSW 6 14 - - - - - - - 13.6 1017.4 0.0
19/07:30am SW 5 9 - - - - - - - 12.9 1017.3 0.0
19/07:00am SSW 5 8 - - - - - - - 12.8 1017.1 0.0
19/06:30am SSW 4 8 - - - - - - - 12.3 1016.6 0.0
19/06:00am WSW 3 6 - - - - - - - 12.0 1016.2 0.0
19/05:30am SW 7 10 - - - - - - - 13.1 1015.7 0.0
19/05:00am SW 6 15 - - - - - - - 13.3 1015.6 0.0
19/04:30am SSW 4 8 - - - - - - - 13.6 1015.8 0.0
19/04:00am SSW 5 7 - - - - - - - 13.9 1015.8 0.0
19/03:30am SSW 3 5 - - - - - - - 13.9 1015.8 0.0
19/03:00am SSW 5 9 - - - - - - - 14.7 1015.7 0.0
19/02:30am SSW 10 16 - - - - - - - 15.7 1015.5 0.0
19/02:00am SSW 8 16 - - - - - - - 16.3 1015.3 0.0
19/01:30am SSW 9 16 - - - - - - - 17.1 1015.5 0.0
19/01:00am SSW 5 11 - - - - - - - 17.3 1015.6 0.0
19/12:30am SW 8 15 - - - - - - - 18.0 1015.5 0.0
19/12:00am SW 10 17 - - - - - - - 18.7 1015.5 0.0
 
Date/Time
EST
Wind Sea
Height
m
Swell Vis
km
Cloud Weather Temp
°C
Press
MSL
hPa
Rain since
9am
mm
Dir  Spd
kts
Gust
kts
Height
m
Period
s
Dir
18/11:30pm SW 9 15 - - - - - - - 18.9 1015.6 0.0
18/11:00pm WSW 8 13 - - - - - - - 19.3 1015.8 0.0
18/10:30pm SW 8 11 - - - - - - - 19.9 1015.7 0.0
18/10:00pm SW 6 10 - - - - - - - 20.3 1015.8 0.0
18/09:30pm SW 7 11 - - - - - - - 20.7 1015.8 0.0
18/09:00pm SW 8 13 - - - - - - - 21.0 1015.7 0.0
18/08:30pm SW 8 13 - - - - - - - 21.4 1015.6 0.0
18/08:00pm SW 6 13 - - - - - - - 21.1 1015.6 0.0
18/07:30pm WSW 5 6 - - - - - - - 20.9 1015.3 0.0
18/07:00pm S 2 4 - - - - - - - 21.5 1014.6 0.0
18/06:30pm S 4 5 - - - - - - - 22.1 1014.3 0.0
18/06:00pm SSE 6 8 - - - - - - - 23.2 1013.9 0.0
18/05:30pm S 5 7 - - - - - - - 23.4 1013.6 0.0
18/05:00pm SSE 6 8 - - - - - - - 24.2 1013.2 0.0
18/04:30pm SSE 7 12 - - - - - - - 24.8 1013.1 0.0
18/04:00pm S 7 11 - - - - - - - 25.6 1013.1 0.0
18/03:30pm SSE 7 14 - - - - - - - 25.8 1013.0 0.0
18/03:00pm S 5 9 - - - - - - - 26.1 1013.0 0.0
18/02:30pm SSW 5 12 - - - - - - - 26.4 1013.1 0.0
18/02:00pm SSW 7 13 - - - - - - - 25.7 1013.2 0.0
18/01:30pm S 6 12 - - - - - - - 25.8 1013.6 0.0
18/01:00pm S 7 12 - - - - - - - 25.5 1014.1 0.0
18/12:30pm SSW 7 16 - - - - - - - 25.1 1014.6 0.0
18/12:00pm S 9 16 - - - - - - - 24.2 1015.3 0.0
18/11:30am S 8 16 - - - - - - - 23.7 1016.0 0.0
18/11:00am SSW 8 15 - - - - - - - 23.5 1016.5 0.0
18/10:30am SSW 8 14 - - - - - - - 22.4 1017.1 0.0
18/10:00am SSW 10 16 - - - - - - - 21.8 1017.5 0.0
18/09:30am SSW 7 16 - - - - - - - 21.0 1017.7 0.0
18/09:00am SSW 6 11 - - - - - - - 20.1 1017.8 0.0
18/08:30am SSW 6 11 - - - - - - - 18.9 1017.6 0.0
18/08:00am SW 6 9 - - - - - - - 18.0 1017.3 0.0
18/07:30am SW 7 13 - - - - - - - 17.4 1017.2 0.0
18/07:00am SW 9 14 - - - - - - - 16.5 1017.1 0.0
18/06:30am SW 5 7 - - - - - - - 15.2 1016.9 0.0
18/06:00am SW 7 10 - - - - - - - 16.3 1016.7 0.0
18/05:30am WSW 8 13 - - - - - - - 16.6 1016.3 0.0
18/05:00am SW 8 13 - - - - - - - 17.4 1016.1 0.0
18/04:30am SW 8 13 - - - - - - - 17.5 1016.2 0.0
18/04:00am WSW 6 9 - - - - - - - 17.2 1016.3 0.0
18/03:30am SSW 5 7 - - - - - - - 17.7 1016.5 0.0
18/03:00am SSW 7 10 - - - - - - - 18.1 1016.6 0.0
18/02:30am SSW 6 9 - - - - - - - 18.2 1016.8 0.0
18/02:00am S 7 10 - - - - - - - 18.6 1017.1 0.0
18/01:30am SSE 7 11 - - - - - - - 18.5 1017.5 0.0
18/01:00am SE 7 9 - - - - - - - 18.8 1017.7 0.0
18/12:30am SSE 7 9 - - - - - - - 19.1 1017.9 0.0
18/12:00am SSE 8 12 - - - - - - - 19.6 1018.2 0.0
 
Date/Time
EST
Wind Sea
Height
m
Swell Vis
km
Cloud Weather Temp
°C
Press
MSL
hPa
Rain since
9am
mm
Dir  Spd
kts
Gust
kts
Height
m
Period
s
Dir
17/11:30pm SSE 8 11 - - - - - - - 19.9 1018.5 0.0
17/11:00pm SSE 8 10 - - - - - - - 20.1 1018.5 0.0
17/10:30pm SSE 8 11 - - - - - - - 20.3 1018.7 0.0
17/10:00pm SSE 7 9 - - - - - - - 20.2 1018.8 0.0
17/09:30pm SSE 7 10 - - - - - - - 20.1 1019.0 0.0
17/09:00pm SSE 7 9 - - - - - - - 20.3 1019.1 0.0
17/08:30pm SE 7 11 - - - - - - - 20.6 1018.9 0.0
17/08:00pm E 6 9 - - - - - - - 20.5 1018.9 0.0
17/07:30pm E 7 10 - - - - - - - 20.6 1018.7 0.0
17/07:00pm E 6 8 - - - - - - - 20.6 1018.5 0.0
17/06:30pm E 8 10 - - - - - - - 20.8 1018.3 0.0
17/06:00pm ENE 6 7 - - - - - - - 20.8 1018.0 0.0
17/05:30pm ENE 7 9 - - - - - - - 21.2 1017.8 0.0
17/05:00pm ENE 9 12 - - - - - - - 21.6 1017.6 0.0
17/04:30pm ENE 8 11 - - - - - - - 22.2 1017.5 0.0
17/04:00pm ENE 10 14 - - - - - - - 23.1 1017.3 0.0
17/03:30pm ENE 9 13 - - - - - - - 24.3 1017.2 0.0
17/03:00pm E 9 13 - - - - - - - 25.6 1017.2 0.0
17/02:30pm ESE 7 10 - - - - - - - 25.4 1017.3 0.0
17/02:00pm ENE 9 14 - - - - - - - 25.0 1017.4 0.0
17/01:30pm ESE 7 12 - - - - - - - 26.0 1017.6 0.0
17/01:00pm ESE 7 14 - - - - - - - 26.1 1018.0 0.0
17/12:30pm ESE 7 13 - - - - - - - 25.7 1018.5 0.0
17/12:00pm ESE 7 12 - - - - - - - 23.7 1019.1 0.0
17/11:30am SE 7 11 - - - - - - - 23.3 1019.6 0.0
17/11:00am SE 9 15 - - - - - - - 23.8 1020.1 0.0
17/10:30am SSE 7 14 - - - - - - - 24.2 1020.5 0.0
17/10:00am S 9 15 - - - - - - - 23.4 1020.8 0.0
17/09:30am SSE 8 14 - - - - - - - 22.5 1021.1 0.0
17/09:00am SSE 7 12 - - - - - - - 22.0 1021.2 0.0
17/08:30am SE 9 15 - - - - - - - 21.1 1021.2 0.0
17/08:00am SSE 8 13 - - - - - - - 20.4 1021.2 0.0
17/07:30am SSE 9 15 - - - - - - - 19.2 1021.1 0.0
17/07:00am SSE 9 16 - - - - - - - 18.5 1020.8 0.0
17/06:30am SSE 7 11 - - - - - - - 18.1 1020.6 0.0
17/06:00am S 8 12 - - - - - - - 18.1 1020.4 0.0
17/05:30am SSE 8 13 - - - - - - - 18.1 1020.1 0.0
17/05:00am S 9 14 - - - - - - - 18.2 1019.7 0.0
17/04:30am SSE 7 11 - - - - - - - 18.3 1019.7 0.0
17/04:00am SSE 8 13 - - - - - - - 18.4 1019.8 0.0
17/03:30am SSE 8 13 - - - - - - - 18.6 1019.9 0.0
17/03:00am SSE 9 15 - - - - - - - 18.9 1020.1 0.0
17/02:30am SSE 8 11 - - - - - - - 18.9 1020.4 0.0
17/02:00am SSE 7 10 - - - - - - - 18.8 1020.4 0.0
17/01:30am SSE 6 9 - - - - - - - 18.7 1020.8 0.0
17/01:00am SE 7 10 - - - - - - - 19.0 1021.3 0.0
17/12:30am SSE 8 12 - - - - - - - 19.3 1021.5 0.0
17/12:00am SSE 9 14 - - - - - - - 19.5 1021.7 0.0
 
Date/Time
EST
Wind Sea
Height
m
Swell Vis
km
Cloud Weather Temp
°C
Press
MSL
hPa
Rain since
9am
mm
Dir  Spd
kts
Gust
kts
Height
m
Period
s
Dir
16/11:30pm SSE 9 14 - - - - - - - 19.4 1022.0 0.0
16/11:00pm SSE 8 11 - - - - - - - 19.4 1022.3 0.0
16/10:30pm SSE 8 11 - - - - - - - 19.6 1022.6 0.0
16/10:00pm SSE 8 12 - - - - - - - 19.6 1022.7 0.0
16/09:30pm SSE 9 14 - - - - - - - 19.4 1023.0 0.0
16/09:00pm S 8 12 - - - - - - - 18.9 1023.1 0.0
16/08:30pm SSE 8 13 - - - - - - - 19.0 1023.0 0.0
16/08:00pm SE 10 15 - - - - - - - 19.4 1022.9 0.0
16/07:30pm SE 12 17 - - - - - - - 19.7 1022.5 0.0
16/07:00pm ESE 13 19 - - - - - - - 19.8 1022.5 0.0
16/06:30pm ESE 10 19 - - - - - - - 20.3 1022.4 0.0
16/06:00pm ESE 10 19 - - - - - - - 20.9 1022.1 0.0
16/05:30pm ESE 13 22 - - - - - - - 21.3 1021.7 0.0
16/05:00pm ESE 16 23 - - - - - - - 21.5 1021.4 0.0
16/04:30pm ESE 13 18 - - - - - - - 22.3 1021.2 0.0
16/04:00pm ESE 15 21 - - - - - - - 22.5 1020.9 0.0
16/03:30pm ESE 15 23 - - - - - - - 23.1 1020.7 0.0
16/03:00pm ESE 12 20 - - - - - - - 23.3 1020.9 0.0
16/02:30pm ESE 14 21 - - - - - - - 23.4 1020.9 0.0
16/02:00pm E 17 25 - - - - - - - 23.3 1021.1 0.0
16/01:30pm ESE 10 16 - - - - - - - 24.4 1021.2 0.0
16/01:00pm ESE 15 24 - - - - - - - 24.3 1021.4 0.0
16/12:30pm ESE 12 23 - - - - - - - 23.5 1021.9 0.0
16/12:00pm ESE 15 24 - - - - - - - 23.9 1022.3 0.0
16/11:30am SE 12 18 - - - - - - - 24.3 1022.8 0.0
16/11:00am SE 11 18 - - - - - - - 23.7 1023.1 0.0
16/10:30am SSE 11 16 - - - - - - - 22.2 1023.6 0.0
16/10:00am SE 13 21 - - - - - - - 22.3 1023.9 0.0
16/09:30am SE 8 15 - - - - - - - 22.9 1023.8 0.0

Other formats

Comma delimited format used in spreadsheet applications
http://www.bom.gov.au/fwo/IDQ60701/IDQ60701.94380.axf

JavaScript Object Notation format (JSON) in row-major order
http://www.bom.gov.au/fwo/IDQ60701/IDQ60701.94380.json

Data quality

Most of these data are generated automatically and are frequently updated. Quality checks on data are not normally performed. It is possible for incorrect values to appear. Refer to information at About Latest Weather Observations and please check the disclaimer before using these data.